Time;durP1;ratioP1;P1;durP2;ratioP2;P2;SDS_P1;SDS_P2;PMS_P1;PMS_P2;Temp;Humidity;BMP_temperature;BMP_pressure;BME280_temperature;BME280_humidity;BME280_pressure;Samples;Min_cycle;Max_cycle;Signal;HPM_P1;HPM_P2
2023/05/03 07:09:59;;;;;;;8.68;6.80;;;;;;;;;;5197937;23;20055;-77
2023/05/03 07:12:27;;;;;;;12.75;6.88;;;;;;;;;;4936949;29;20035;-76
2023/05/03 07:14:53;;;;;;;8.25;6.00;;;;;;;;;;4936882;29;20130;-76
2023/05/03 07:17:20;;;;;;;7.28;5.90;;;;;;;;;;4936869;29;20024;-76
2023/05/03 09:21:45;;;;;;;7.43;5.50;;;;;;;;;;4936929;29;20044;-77
2023/05/03 09:24:21;;;;;;;6.72;5.30;;;;;;;;;;4938635;29;20487;-80
2023/05/03 09:26:49;;;;;;;6.13;5.53;;;;;;;;;;4938873;29;20040;-76
2023/05/03 09:29:28;;;;;;;11.15;7.28;;;;;;;;;;4938731;29;20031;-76
2023/05/03 09:31:59;;;;;;;9.27;7.30;;;;;;;;;;4938841;29;20061;-77
2023/05/03 09:34:25;;;;;;;8.43;6.75;;;;;;;;;;4938744;29;20024;-79
2023/05/03 09:36:50;;;;;;;7.80;6.43;;;;;;;;;;4938595;29;20039;-78
2023/05/03 09:39:17;;;;;;;7.07;5.65;;;;;;;;;;4938483;29;20040;-84
2023/05/03 09:41:42;;;;;;;10.10;7.05;;;;;;;;;;4938877;29;20083;-77
2023/05/03 09:44:08;;;;;;;7.85;6.80;;;;;;;;;;4938659;29;20032;-79
2023/05/03 09:46:33;;;;;;;7.03;6.32;;;;;;;;;;4938632;29;20032;-84
2023/05/03 09:48:58;;;;;;;8.05;6.47;;;;;;;;;;4938503;29;20083;-78
2023/05/03 09:51:24;;;;;;;6.65;5.95;;;;;;;;;;4938807;29;20375;-77
2023/05/03 09:53:50;;;;;;;8.57;6.20;;;;;;;;;;4938494;29;20031;-80
2023/05/03 09:56:16;;;;;;;7.65;6.85;;;;;;;;;;4938311;29;20028;-81
2023/05/03 09:58:42;;;;;;;7.85;6.38;;;;;;;;;;4938326;29;20052;-81
2023/05/03 10:01:13;;;;;;;9.63;7.00;;;;;;;;;;4938313;29;20079;-81
2023/05/03 10:03:42;;;;;;;8.65;7.25;;;;;;;;;;4938045;29;20035;-76
2023/05/03 10:06:20;;;;;;;10.25;7.47;;;;;;;;;;4938202;29;20031;-78
2023/05/03 10:08:52;;;;;;;9.00;7.38;;;;;;;;;;4938142;29;20023;-84
2023/05/03 10:11:18;;;;;;;9.05;7.40;;;;;;;;;;4937394;29;20135;-79
2023/05/03 10:13:44;;;;;;;10.93;8.80;;;;;;;;;;4937943;29;20488;-80
2023/05/03 10:16:18;;;;;;;8.35;7.28;;;;;;;;;;4937930;29;20031;-81
2023/05/03 10:18:52;;;;;;;10.93;9.15;;;;;;;;;;4937884;29;20545;-79
2023/05/03 10:21:32;;;;;;;10.68;9.40;;;;;;;;;;4920636;29;20048;-82
2023/05/03 10:24:14;;;;;;;;;;;;;;;;;;4938206;29;20395;-79
2023/05/03 10:26:41;;;;;;;9.68;8.68;;;;;;;;;;4938055;29;19911;-79
2023/05/03 10:29:36;;;;;;;10.38;7.07;;;;;;;;;;4937717;29;20035;-80
2023/05/03 10:32:04;;;;;;;9.25;7.03;;;;;;;;;;4937570;29;20379;-79
2023/05/03 10:34:34;;;;;;;9.45;8.27;;;;;;;;;;4937704;29;20050;-79
2023/05/03 10:37:10;;;;;;;8.82;7.68;;;;;;;;;;4937394;29;20035;-79
2023/05/03 10:39:36;;;;;;;6.63;6.00;;;;;;;;;;4938032;29;20111;-77
2023/05/03 10:42:07;;;;;;;10.43;7.00;;;;;;;;;;4937554;29;20038;-77
2023/05/03 10:44:39;;;;;;;7.18;6.45;;;;;;;;;;4937550;29;20028;-77
2023/05/03 10:47:23;;;;;;;8.18;7.38;;;;;;;;;;4937283;29;20464;-78
2023/05/03 10:50:10;;;;;;;8.15;7.35;;;;;;;;;;4937285;29;20577;-78
2023/05/03 10:52:38;;;;;;;9.38;8.02;;;;;;;;;;4937479;29;20055;-84
2023/05/03 19:27:28;;;;;;;1.60;1.50;;;;;;;;;;4914161;29;20056;-76
2023/05/03 19:29:54;;;;;;;2.28;1.70;;;;;;;;;;4917805;29;20474;-79
2023/05/03 19:32:19;;;;;;;2.78;1.85;;;;;;;;;;4917959;29;20092;-79
2023/05/03 19:34:45;;;;;;;3.15;2.03;;;;;;;;;;4917726;29;20024;-73
2023/05/03 19:37:10;;;;;;;2.97;1.90;;;;;;;;;;4917940;29;20062;-77
2023/05/03 19:39:36;;;;;;;2.17;1.92;;;;;;;;;;4917956;29;20035;-76
2023/05/03 19:42:02;;;;;;;1.67;1.58;;;;;;;;;;4917912;29;20103;-73
2023/05/03 19:44:31;;;;;;;2.08;1.88;;;;;;;;;;4916558;29;20035;-72
2023/05/03 19:46:57;;;;;;;2.63;1.90;;;;;;;;;;4917781;29;20031;-75
2023/05/03 19:49:23;;;;;;;2.30;1.80;;;;;;;;;;4917385;29;20032;-72
2023/05/03 19:51:52;;;;;;;1.80;1.70;;;;;;;;;;4917577;29;20032;-72
2023/05/03 19:54:19;;;;;;;1.92;1.73;;;;;;;;;;4917553;29;20383;-73
2023/05/03 19:56:44;;;;;;;2.17;1.80;;;;;;;;;;4923738;29;20031;-75
2023/05/03 19:59:10;;;;;;;3.60;2.33;;;;;;;;;;4926256;29;20039;-75
2023/05/03 20:01:35;;;;;;;2.40;2.20;;;;;;;;;;4927496;29;20038;-74
2023/05/03 20:04:00;;;;;;;2.10;1.70;;;;;;;;;;4925622;29;20028;-74
2023/05/03 20:06:26;;;;;;;2.17;2.00;;;;;;;;;;4926857;29;20034;-75
2023/05/03 20:08:52;;;;;;;2.20;1.75;;;;;;;;;;4921487;29;20028;-75
2023/05/03 20:11:18;;;;;;;1.60;1.50;;;;;;;;;;4917431;29;20032;-74
2023/05/03 20:13:44;;;;;;;1.92;1.70;;;;;;;;;;4917290;29;20032;-74
2023/05/03 20:16:09;;;;;;;2.10;2.00;;;;;;;;;;4931821;29;20040;-75
2023/05/03 20:18:35;;;;;;;3.08;1.75;;;;;;;;;;4917256;29;20032;-74
2023/05/03 20:21:00;;;;;;;2.00;1.80;;;;;;;;;;4917326;29;20361;-74
2023/05/03 20:23:26;;;;;;;1.65;1.55;;;;;;;;;;4917443;29;20571;-74
2023/05/03 20:25:52;;;;;;;1.70;1.60;;;;;;;;;;4917328;29;20024;-74
2023/05/03 20:28:17;;;;;;;1.90;1.70;;;;;;;;;;4930802;29;20043;-74
2023/05/03 20:30:42;;;;;;;1.63;1.52;;;;;;;;;;4935983;29;20083;-74
2023/05/03 20:33:08;;;;;;;3.58;1.80;;;;;;;;;;4936197;29;20471;-74
2023/05/03 20:35:37;;;;;;;1.90;1.80;;;;;;;;;;4935962;29;20035;-74
2023/05/03 20:38:03;;;;;;;4.18;2.00;;;;;;;;;;4936048;29;20104;-74
2023/05/03 20:40:29;;;;;;;2.22;2.03;;;;;;;;;;4936005;29;20024;-74
2023/05/03 20:42:55;;;;;;;1.65;1.55;;;;;;;;;;4935954;29;20032;-73
2023/05/03 20:45:21;;;;;;;1.95;1.85;;;;;;;;;;4935849;29;20490;-73
2023/05/03 20:47:46;;;;;;;3.40;1.80;;;;;;;;;;4936140;29;20487;-74
2023/05/03 20:50:11;;;;;;;2.97;1.67;;;;;;;;;;4918827;29;20109;-74
2023/05/03 20:52:37;;;;;;;1.70;1.60;;;;;;;;;;4935891;29;20024;-74
2023/05/03 20:55:02;;;;;;;1.90;1.70;;;;;;;;;;4936630;29;20114;-74
2023/05/03 20:57:28;;;;;;;3.17;2.05;;;;;;;;;;4939573;29;20024;-76
2023/05/03 20:59:53;;;;;;;3.10;1.90;;;;;;;;;;4939385;29;20118;-75
2023/05/03 21:02:19;;;;;;;2.33;2.17;;;;;;;;;;4939473;29;20410;-79
2023/05/03 21:04:44;;;;;;;2.05;1.90;;;;;;;;;;4922283;29;20079;-79
2023/05/03 21:07:10;;;;;;;2.72;1.90;;;;;;;;;;4939380;29;20060;-75
2023/05/03 21:09:35;;;;;;;2.97;2.05;;;;;;;;;;4939437;29;20032;-74
2023/05/03 21:12:00;;;;;;;2.95;1.80;;;;;;;;;;4939417;29;20106;-78
2023/05/03 21:14:27;;;;;;;1.88;1.70;;;;;;;;;;4939117;29;20505;-76
2023/05/03 21:16:53;;;;;;;1.70;1.58;;;;;;;;;;4939311;29;20110;-75
2023/05/03 21:19:18;;;;;;;1.90;1.80;;;;;;;;;;4939445;29;20106;-77
2023/05/03 21:21:44;;;;;;;2.17;1.60;;;;;;;;;;4939122;29;20055;-76
2023/05/03 21:24:10;;;;;;;1.95;1.58;;;;;;;;;;4939035;29;20027;-75
2023/05/03 21:26:35;;;;;;;1.70;1.60;;;;;;;;;;4939083;29;20479;-75
2023/05/03 21:29:01;;;;;;;2.78;2.20;;;;;;;;;;4939135;29;20087;-76
2023/05/03 21:31:26;;;;;;;2.45;1.95;;;;;;;;;;4938844;29;20035;-75
2023/05/03 21:33:52;;;;;;;2.20;1.85;;;;;;;;;;4938791;29;20028;-75
2023/05/03 21:36:18;;;;;;;3.25;1.92;;;;;;;;;;4939101;29;20034;-76
2023/05/03 21:38:43;;;;;;;2.08;1.98;;;;;;;;;;4939007;29;20038;-75
2023/05/03 21:41:09;;;;;;;1.80;1.70;;;;;;;;;;4938690;29;20423;-75
2023/05/03 21:43:35;;;;;;;2.63;1.83;;;;;;;;;;4938777;29;20035;-77
2023/05/03 21:46:01;;;;;;;1.60;1.50;;;;;;;;;;4938607;29;20055;-77
2023/05/03 21:48:27;;;;;;;2.28;2.05;;;;;;;;;;4940061;29;20106;-78
2023/05/03 21:50:52;;;;;;;1.73;1.63;;;;;;;;;;4938511;29;20111;-75
2023/05/03 21:53:18;;;;;;;2.22;1.85;;;;;;;;;;4938672;29;20064;-79
2023/05/03 21:55:45;;;;;;;1.65;1.55;;;;;;;;;;4938630;29;20027;-78
2023/05/03 21:58:10;;;;;;;3.25;2.00;;;;;;;;;;4938530;29;20032;-74
2023/05/03 22:00:36;;;;;;;2.38;2.00;;;;;;;;;;4938287;29;20054;-73
2023/05/03 22:03:01;;;;;;;2.47;2.10;;;;;;;;;;4938468;29;20032;-74
2023/05/03 22:05:27;;;;;;;2.90;2.00;;;;;;;;;;4938763;29;20463;-74
2023/05/03 22:07:52;;;;;;;1.77;1.67;;;;;;;;;;4937598;29;20435;-75
2023/05/03 22:10:18;;;;;;;2.08;1.65;;;;;;;;;;4938241;29;20024;-75
2023/05/03 22:12:44;;;;;;;2.25;1.70;;;;;;;;;;4938198;29;20032;-76
2023/05/03 22:15:09;;;;;;;3.85;2.40;;;;;;;;;;4938242;29;20387;-74
2023/05/03 22:17:35;;;;;;;3.05;2.53;;;;;;;;;;4938128;29;20024;-74
2023/05/03 22:20:01;;;;;;;2.30;2.10;;;;;;;;;;4937899;29;20070;-75
2023/05/03 22:22:26;;;;;;;2.22;1.88;;;;;;;;;;4938229;29;20032;-74
2023/05/03 22:24:52;;;;;;;2.35;2.15;;;;;;;;;;4937964;29;20035;-74
2023/05/03 22:27:17;;;;;;;2.25;2.10;;;;;;;;;;4937258;29;20048;-74
2023/05/03 22:29:43;;;;;;;2.42;2.00;;;;;;;;;;4937725;29;20087;-75
2023/05/03 22:32:08;;;;;;;2.20;2.00;;;;;;;;;;4937842;29;20055;-74
2023/05/03 22:34:33;;;;;;;1.70;1.60;;;;;;;;;;4937682;29;20044;-74
2023/05/03 22:36:59;;;;;;;1.77;1.67;;;;;;;;;;4938017;29;20090;-74
2023/05/03 22:39:24;;;;;;;2.00;1.75;;;;;;;;;;4937717;29;20094;-74
2023/05/03 22:41:50;;;;;;;2.00;1.80;;;;;;;;;;4937536;29;20039;-74
2023/05/03 22:44:15;;;;;;;1.85;1.75;;;;;;;;;;4937392;29;20098;-74
2023/05/03 22:46:41;;;;;;;2.83;1.85;;;;;;;;;;4937582;29;20035;-75
